Terminal Aerodrome Forecast
Issued by NWS

Home | Current Version | Previous Version | Graphics & Text | Print | Product List | Glossary Off
Versions: 1 2 3 4 5 6 7 8 9 10 11 12 13 14 15 16 17 18 19 20

000
FTUS43 KDDC 222037 AAC
TAFHYS
TAF AMD
KHYS 222037Z 2221/2318 14012KT P6SM OVC030
     FM230000 15012KT P6SM OVC020
     FM230600 16013KT 3SM BR OVC007
     FM231200 17013KT 2SM BR OVC003
     FM231500 18020G30KT 4SM BR OVC020
     FM231700 18027G37KT P6SM BKN020
      AMD NOT SKED=

USA.gov is the U.S. government's official web portal to all federal, state and local government web resources and services.